Date,TemperatureHighF,TemperatureAvgF,TemperatureLowF,DewpointHighF,DewpointAvgF,DewpointLowF,HumidityHigh,HumidityAvg,HumidityLow,PressureMaxIn,PressureMinIn,WindSpeedMaxMPH,WindSpeedAvgMPH,GustSpeedMaxMPH,PrecipitationSumIn
2013-7-1,77.7,75.7,72.1,77.5,74.1,70.9,99,95,85,30.07,29.94,8,1,8,0.48
2013-7-2,84.0,75.8,72.7,76.6,73.7,71.3,99,94,68,30.26,30.06,5,1,5,0.19
2013-7-3,76.6,73.8,72.1,76.4,73.5,71.3,99,99,99,30.27,30.23,2,0,2,0.00
2013-7-4,91.6,85.9,77.4,75.1,66.7,59.0,92,55,34,30.35,30.23,6,2,6,0.00
2013-7-5,80.2,76.0,72.5,74.0,71.8,70.8,99,87,75,30.32,30.24,4,0,4,0.00
2013-7-6,90.7,83.1,77.2,74.7,70.1,60.5,92,66,39,30.29,30.16,7,1,7,0.00
2013-7-7,94.5,82.6,73.9,73.3,69.9,63.4,91,68,37,30.21,30.07,6,1,6,0.00
2013-7-8,93.0,77.4,72.7,75.9,71.2,62.0,99,83,38,30.21,30.11,3,0,4,0.17
2013-7-9,91.9,81.5,73.4,77.1,72.5,64.3,99,76,45,30.18,30.08,6,1,6,0.00
2013-7-10,87.1,78.9,72.7,76.2,73.1,70.4,99,84,58,30.03,29.95,5,1,5,0.21
2013-7-11,83.1,76.4,72.0,77.7,74.0,71.7,99,93,69,30.04,29.92,4,1,4,0.89
2013-7-12,79.2,73.4,69.4,73.0,71.4,69.2,99,94,78,30.10,29.92,5,0,5,0.57
2013-7-13,87.3,76.4,69.8,75.2,72.3,69.5,99,88,60,30.31,30.08,4,0,4,0.00
2013-7-14,91.9,81.8,73.2,80.0,70.5,58.7,99,73,35,30.38,30.30,6,1,6,0.00
2013-7-15,98.6,82.2,72.7,77.2,71.4,56.8,99,75,27,30.38,30.26,4,0,4,0.00
2013-7-16,97.3,84.3,73.0,79.8,71.2,60.6,99,70,31,30.30,30.19,5,1,5,0.00
2013-7-18,91.8,84.2,80.4,76.8,73.8,64.8,88,73,41,30.12,30.06,0,0,0,0.00
2013-7-19,96.6,86.9,76.6,77.5,72.6,62.7,99,65,34,30.11,29.97,7,1,7,0.00
2013-7-20,94.8,84.7,77.9,74.4,71.8,65.6,85,67,40,30.02,29.91,4,0,7,0.00
2013-7-21,91.8,81.1,73.4,74.3,72.4,67.9,99,77,46,30.02,29.91,3,0,8,0.04
2013-7-22,90.5,78.6,71.6,80.8,74.8,70.2,99,90,53,29.99,29.83,2,0,4,0.11
2013-7-23,94.5,81.8,74.1,77.1,71.2,58.9,99,75,31,29.85,29.71,3,0,5,0.00
2013-7-24,92.5,80.4,72.3,74.7,69.9,56.1,99,74,30,29.94,29.73,2,0,5,0.40
2013-7-25,83.1,73.0,66.2,73.3,63.2,50.0,99,75,36,30.08,29.89,2,0,5,0.99
2013-7-26,90.9,73.4,61.0,67.2,59.3,40.1,99,68,17,30.16,30.07,2,0,4,0.00
2013-7-27,87.6,76.8,67.6,70.3,64.7,55.2,99,70,35,30.12,29.97,3,0,5,0.00
2013-7-28,89.1,78.5,72.5,72.0,66.6,57.8,94,69,38,30.04,29.93,4,0,9,0.00
2013-7-29,90.1,76.4,70.7,72.1,60.5,36.2,99,65,15,30.22,30.02,2,0,5,0.05
2013-7-30,92.3,76.6,64.9,69.1,58.6,39.1,99,62,17,30.29,30.18,2,0,4,0.00
2013-7-31,84.4,71.9,66.7,73.8,68.7,65.7,99,90,57,30.21,30.08,2,0,5,1.32